sensor_id;sensor_type;location;lat;lon;timestamp;P1;durP1;ratioP1;P2;durP2;ratioP2
11263;SDS011;5689;48.798;9.070;2022-07-21T00:01:37;0.10;;;0.10;;
11263;SDS011;5689;48.798;9.070;2022-07-21T00:04:05;0.20;;;0.20;;
11263;SDS011;5689;48.798;9.070;2022-07-21T00:06:33;0.10;;;0.10;;
11263;SDS011;5689;48.798;9.070;2022-07-21T00:09:02;0.20;;;0.20;;
11263;SDS011;5689;48.798;9.070;2022-07-21T00:11:30;0.17;;;0.17;;
11263;SDS011;5689;48.798;9.070;2022-07-21T00:13:58;0.10;;;0.10;;
11263;SDS011;5689;48.798;9.070;2022-07-21T00:16:26;0.20;;;0.20;;
11263;SDS011;5689;48.798;9.070;2022-07-21T00:18:54;0.20;;;0.20;;
11263;SDS011;5689;48.798;9.070;2022-07-21T00:21:22;0.10;;;0.10;;
11263;SDS011;5689;48.798;9.070;2022-07-21T00:23:50;0.10;;;0.10;;
11263;SDS011;5689;48.798;9.070;2022-07-21T00:26:20;0.10;;;0.10;;
11263;SDS011;5689;48.798;9.070;2022-07-21T00:28:48;0.10;;;0.10;;
11263;SDS011;5689;48.798;9.070;2022-07-21T00:31:16;0.10;;;0.10;;
11263;SDS011;5689;48.798;9.070;2022-07-21T00:33:44;0.17;;;0.17;;
11263;SDS011;5689;48.798;9.070;2022-07-21T00:36:12;0.10;;;0.10;;
11263;SDS011;5689;48.798;9.070;2022-07-21T00:38:40;0.20;;;0.20;;
11263;SDS011;5689;48.798;9.070;2022-07-21T00:41:11;0.10;;;0.10;;
11263;SDS011;5689;48.798;9.070;2022-07-21T00:43:40;0.10;;;0.10;;
11263;SDS011;5689;48.798;9.070;2022-07-21T00:46:08;0.10;;;0.10;;
11263;SDS011;5689;48.798;9.070;2022-07-21T00:48:37;0.10;;;0.10;;
11263;SDS011;5689;48.798;9.070;2022-07-21T00:51:05;0.10;;;0.10;;
11263;SDS011;5689;48.798;9.070;2022-07-21T00:53:33;0.17;;;0.17;;
11263;SDS011;5689;48.798;9.070;2022-07-21T00:56:01;0.10;;;0.10;;
11263;SDS011;5689;48.798;9.070;2022-07-21T00:58:29;0.10;;;0.10;;
11263;SDS011;5689;48.798;9.070;2022-07-21T01:00:59;0.10;;;0.10;;
11263;SDS011;5689;48.798;9.070;2022-07-21T01:03:27;0.10;;;0.10;;
11263;SDS011;5689;48.798;9.070;2022-07-21T01:05:54;0.20;;;0.20;;
11263;SDS011;5689;48.798;9.070;2022-07-21T01:08:25;0.20;;;0.20;;
11263;SDS011;5689;48.798;9.070;2022-07-21T01:10:54;0.10;;;0.10;;
11263;SDS011;5689;48.798;9.070;2022-07-21T01:13:22;0.20;;;0.20;;
11263;SDS011;5689;48.798;9.070;2022-07-21T01:15:50;0.10;;;0.10;;
11263;SDS011;5689;48.798;9.070;2022-07-21T01:18:20;0.10;;;0.10;;
11263;SDS011;5689;48.798;9.070;2022-07-21T01:20:50;0.13;;;0.13;;
11263;SDS011;5689;48.798;9.070;2022-07-21T01:23:22;0.08;;;0.08;;
11263;SDS011;5689;48.798;9.070;2022-07-21T01:25:50;0.13;;;0.13;;
11263;SDS011;5689;48.798;9.070;2022-07-21T01:28:18;0.10;;;0.10;;
11263;SDS011;5689;48.798;9.070;2022-07-21T01:30:46;0.10;;;0.10;;
11263;SDS011;5689;48.798;9.070;2022-07-21T01:33:14;0.20;;;0.20;;
11263;SDS011;5689;48.798;9.070;2022-07-21T01:35:42;0.10;;;0.10;;
11263;SDS011;5689;48.798;9.070;2022-07-21T01:38:11;0.10;;;0.10;;
11263;SDS011;5689;48.798;9.070;2022-07-21T01:40:57;0.10;;;0.10;;
11263;SDS011;5689;48.798;9.070;2022-07-21T01:43:43;0.10;;;0.10;;
11263;SDS011;5689;48.798;9.070;2022-07-21T01:46:11;0.10;;;0.10;;
11263;SDS011;5689;48.798;9.070;2022-07-21T01:48:43;0.10;;;0.10;;
11263;SDS011;5689;48.798;9.070;2022-07-21T01:51:11;0.10;;;0.10;;
11263;SDS011;5689;48.798;9.070;2022-07-21T01:53:40;0.20;;;0.20;;
11263;SDS011;5689;48.798;9.070;2022-07-21T01:56:09;0.10;;;0.10;;
11263;SDS011;5689;48.798;9.070;2022-07-21T01:58:37;0.10;;;0.10;;
11263;SDS011;5689;48.798;9.070;2022-07-21T02:01:05;0.10;;;0.10;;
11263;SDS011;5689;48.798;9.070;2022-07-21T02:03:33;0.10;;;0.10;;
11263;SDS011;5689;48.798;9.070;2022-07-21T02:06:02;0.10;;;0.10;;
11263;SDS011;5689;48.798;9.070;2022-07-21T02:08:31;0.10;;;0.10;;
11263;SDS011;5689;48.798;9.070;2022-07-21T02:10:59;0.10;;;0.10;;
11263;SDS011;5689;48.798;9.070;2022-07-21T02:13:29;0.10;;;0.10;;
11263;SDS011;5689;48.798;9.070;2022-07-21T02:15:57;0.10;;;0.10;;
11263;SDS011;5689;48.798;9.070;2022-07-21T02:18:25;0.05;;;0.05;;
11263;SDS011;5689;48.798;9.070;2022-07-21T02:20:53;0.10;;;0.10;;
11263;SDS011;5689;48.798;9.070;2022-07-21T02:23:22;0.10;;;0.10;;
11263;SDS011;5689;48.798;9.070;2022-07-21T02:25:51;0.10;;;0.10;;
11263;SDS011;5689;48.798;9.070;2022-07-21T02:28:19;0.10;;;0.10;;
11263;SDS011;5689;48.798;9.070;2022-07-21T02:30:51;0.10;;;0.10;;
11263;SDS011;5689;48.798;9.070;2022-07-21T02:33:20;0.10;;;0.10;;
11263;SDS011;5689;48.798;9.070;2022-07-21T02:35:48;0.10;;;0.10;;
11263;SDS011;5689;48.798;9.070;2022-07-21T02:38:16;0.10;;;0.10;;
11263;SDS011;5689;48.798;9.070;2022-07-21T02:40:45;0.05;;;0.05;;
11263;SDS011;5689;48.798;9.070;2022-07-21T02:43:13;0.05;;;0.05;;
11263;SDS011;5689;48.798;9.070;2022-07-21T02:45:41;0.10;;;0.10;;
11263;SDS011;5689;48.798;9.070;2022-07-21T02:48:11;0.00;;;0.00;;
11263;SDS011;5689;48.798;9.070;2022-07-21T02:50:40;0.08;;;0.08;;
11263;SDS011;5689;48.798;9.070;2022-07-21T02:53:10;0.10;;;0.10;;
11263;SDS011;5689;48.798;9.070;2022-07-21T02:55:40;0.10;;;0.10;;
11263;SDS011;5689;48.798;9.070;2022-07-21T02:58:08;0.10;;;0.10;;
11263;SDS011;5689;48.798;9.070;2022-07-21T03:00:39;0.10;;;0.10;;
11263;SDS011;5689;48.798;9.070;2022-07-21T03:03:08;0.10;;;0.10;;
11263;SDS011;5689;48.798;9.070;2022-07-21T03:05:38;0.10;;;0.10;;
11263;SDS011;5689;48.798;9.070;2022-07-21T03:08:07;0.10;;;0.10;;
11263;SDS011;5689;48.798;9.070;2022-07-21T03:10:36;0.10;;;0.10;;
11263;SDS011;5689;48.798;9.070;2022-07-21T03:13:05;0.10;;;0.10;;
11263;SDS011;5689;48.798;9.070;2022-07-21T03:15:33;0.00;;;0.00;;
11263;SDS011;5689;48.798;9.070;2022-07-21T03:18:02;0.10;;;0.10;;
11263;SDS011;5689;48.798;9.070;2022-07-21T03:20:31;0.10;;;0.10;;
11263;SDS011;5689;48.798;9.070;2022-07-21T03:23:02;0.00;;;0.00;;
11263;SDS011;5689;48.798;9.070;2022-07-21T03:25:30;0.10;;;0.10;;
11263;SDS011;5689;48.798;9.070;2022-07-21T03:27:59;0.10;;;0.10;;
11263;SDS011;5689;48.798;9.070;2022-07-21T03:30:27;0.10;;;0.10;;
11263;SDS011;5689;48.798;9.070;2022-07-21T03:32:55;0.10;;;0.10;;
11263;SDS011;5689;48.798;9.070;2022-07-21T03:35:24;0.10;;;0.10;;
11263;SDS011;5689;48.798;9.070;2022-07-21T03:37:53;0.08;;;0.08;;
11263;SDS011;5689;48.798;9.070;2022-07-21T03:40:24;0.00;;;0.00;;
11263;SDS011;5689;48.798;9.070;2022-07-21T03:42:54;0.10;;;0.10;;
11263;SDS011;5689;48.798;9.070;2022-07-21T03:45:23;0.10;;;0.10;;
11263;SDS011;5689;48.798;9.070;2022-07-21T03:47:52;0.10;;;0.10;;
11263;SDS011;5689;48.798;9.070;2022-07-21T03:50:20;0.10;;;0.10;;
11263;SDS011;5689;48.798;9.070;2022-07-21T03:52:48;0.10;;;0.10;;
11263;SDS011;5689;48.798;9.070;2022-07-21T03:55:17;0.10;;;0.10;;
11263;SDS011;5689;48.798;9.070;2022-07-21T03:57:47;0.10;;;0.10;;
11263;SDS011;5689;48.798;9.070;2022-07-21T04:00:16;0.05;;;0.05;;
11263;SDS011;5689;48.798;9.070;2022-07-21T04:02:49;0.10;;;0.10;;
11263;SDS011;5689;48.798;9.070;2022-07-21T04:05:22;0.10;;;0.10;;
11263;SDS011;5689;48.798;9.070;2022-07-21T04:07:51;0.10;;;0.10;;
11263;SDS011;5689;48.798;9.070;2022-07-21T04:10:21;0.10;;;0.10;;
11263;SDS011;5689;48.798;9.070;2022-07-21T04:12:53;0.10;;;0.10;;
11263;SDS011;5689;48.798;9.070;2022-07-21T04:15:21;0.10;;;0.10;;
11263;SDS011;5689;48.798;9.070;2022-07-21T04:17:49;0.10;;;0.10;;
11263;SDS011;5689;48.798;9.070;2022-07-21T04:20:18;0.08;;;0.08;;
11263;SDS011;5689;48.798;9.070;2022-07-21T04:22:46;0.10;;;0.10;;
11263;SDS011;5689;48.798;9.070;2022-07-21T04:25:16;0.10;;;0.10;;
11263;SDS011;5689;48.798;9.070;2022-07-21T04:27:47;0.00;;;0.00;;
11263;SDS011;5689;48.798;9.070;2022-07-21T04:30:22;0.10;;;0.10;;
11263;SDS011;5689;48.798;9.070;2022-07-21T04:32:50;0.05;;;0.05;;
11263;SDS011;5689;48.798;9.070;2022-07-21T04:35:24;0.10;;;0.10;;
11263;SDS011;5689;48.798;9.070;2022-07-21T04:37:52;0.10;;;0.10;;
11263;SDS011;5689;48.798;9.070;2022-07-21T04:40:22;0.10;;;0.10;;
11263;SDS011;5689;48.798;9.070;2022-07-21T04:42:51;0.10;;;0.10;;
11263;SDS011;5689;48.798;9.070;2022-07-21T04:45:19;0.10;;;0.10;;
11263;SDS011;5689;48.798;9.070;2022-07-21T04:47:49;0.00;;;0.00;;
11263;SDS011;5689;48.798;9.070;2022-07-21T04:50:19;0.10;;;0.10;;
11263;SDS011;5689;48.798;9.070;2022-07-21T04:52:51;0.05;;;0.05;;
11263;SDS011;5689;48.798;9.070;2022-07-21T04:55:20;0.10;;;0.10;;
11263;SDS011;5689;48.798;9.070;2022-07-21T04:57:49;0.10;;;0.10;;
11263;SDS011;5689;48.798;9.070;2022-07-21T05:00:19;0.10;;;0.10;;
11263;SDS011;5689;48.798;9.070;2022-07-21T05:02:51;0.10;;;0.10;;
11263;SDS011;5689;48.798;9.070;2022-07-21T05:05:20;0.10;;;0.10;;
11263;SDS011;5689;48.798;9.070;2022-07-21T05:07:48;0.10;;;0.10;;
11263;SDS011;5689;48.798;9.070;2022-07-21T05:10:16;0.08;;;0.08;;
11263;SDS011;5689;48.798;9.070;2022-07-21T05:12:45;0.10;;;0.10;;
11263;SDS011;5689;48.798;9.070;2022-07-21T05:15:13;0.00;;;0.00;;
11263;SDS011;5689;48.798;9.070;2022-07-21T05:17:41;0.10;;;0.10;;
11263;SDS011;5689;48.798;9.070;2022-07-21T05:20:11;0.10;;;0.10;;
11263;SDS011;5689;48.798;9.070;2022-07-21T05:22:39;0.10;;;0.10;;
11263;SDS011;5689;48.798;9.070;2022-07-21T05:25:10;0.10;;;0.10;;
11263;SDS011;5689;48.798;9.070;2022-07-21T05:27:38;0.10;;;0.10;;
11263;SDS011;5689;48.798;9.070;2022-07-21T05:30:07;0.00;;;0.00;;
11263;SDS011;5689;48.798;9.070;2022-07-21T05:32:36;0.00;;;0.00;;
11263;SDS011;5689;48.798;9.070;2022-07-21T05:35:07;0.00;;;0.00;;
11263;SDS011;5689;48.798;9.070;2022-07-21T05:37:39;0.00;;;0.00;;
11263;SDS011;5689;48.798;9.070;2022-07-21T05:40:08;0.10;;;0.10;;
11263;SDS011;5689;48.798;9.070;2022-07-21T05:42:37;0.00;;;0.00;;
11263;SDS011;5689;48.798;9.070;2022-07-21T05:45:06;0.00;;;0.00;;
11263;SDS011;5689;48.798;9.070;2022-07-21T05:47:35;0.00;;;0.00;;
11263;SDS011;5689;48.798;9.070;2022-07-21T05:50:04;0.00;;;0.00;;
11263;SDS011;5689;48.798;9.070;2022-07-21T05:52:33;0.03;;;0.03;;
11263;SDS011;5689;48.798;9.070;2022-07-21T05:55:03;0.00;;;0.00;;
11263;SDS011;5689;48.798;9.070;2022-07-21T05:57:31;0.10;;;0.10;;
11263;SDS011;5689;48.798;9.070;2022-07-21T06:00:00;0.10;;;0.10;;
11263;SDS011;5689;48.798;9.070;2022-07-21T06:02:33;0.00;;;0.00;;
11263;SDS011;5689;48.798;9.070;2022-07-21T06:05:01;0.00;;;0.00;;
11263;SDS011;5689;48.798;9.070;2022-07-21T06:07:30;0.05;;;0.05;;
11263;SDS011;5689;48.798;9.070;2022-07-21T06:09:58;0.05;;;0.05;;
11263;SDS011;5689;48.798;9.070;2022-07-21T06:12:28;0.10;;;0.10;;
11263;SDS011;5689;48.798;9.070;2022-07-21T06:14:56;0.00;;;0.00;;
11263;SDS011;5689;48.798;9.070;2022-07-21T06:17:24;0.00;;;0.00;;
11263;SDS011;5689;48.798;9.070;2022-07-21T06:19:52;0.00;;;0.00;;
11263;SDS011;5689;48.798;9.070;2022-07-21T06:22:20;0.00;;;0.00;;
11263;SDS011;5689;48.798;9.070;2022-07-21T06:24:48;0.00;;;0.00;;
11263;SDS011;5689;48.798;9.070;2022-07-21T06:27:16;0.10;;;0.10;;
11263;SDS011;5689;48.798;9.070;2022-07-21T06:29:46;0.03;;;0.03;;
11263;SDS011;5689;48.798;9.070;2022-07-21T06:32:14;0.10;;;0.10;;
11263;SDS011;5689;48.798;9.070;2022-07-21T06:34:44;0.10;;;0.10;;
11263;SDS011;5689;48.798;9.070;2022-07-21T06:37:12;0.00;;;0.00;;
11263;SDS011;5689;48.798;9.070;2022-07-21T06:39:40;0.00;;;0.00;;
11263;SDS011;5689;48.798;9.070;2022-07-21T06:42:08;0.00;;;0.00;;
11263;SDS011;5689;48.798;9.070;2022-07-21T06:44:37;0.00;;;0.00;;
11263;SDS011;5689;48.798;9.070;2022-07-21T06:47:07;0.00;;;0.00;;
11263;SDS011;5689;48.798;9.070;2022-07-21T06:49:35;0.00;;;0.00;;
11263;SDS011;5689;48.798;9.070;2022-07-21T06:52:03;0.00;;;0.00;;
11263;SDS011;5689;48.798;9.070;2022-07-21T06:54:31;0.00;;;0.00;;
11263;SDS011;5689;48.798;9.070;2022-07-21T06:56:59;0.00;;;0.00;;
11263;SDS011;5689;48.798;9.070;2022-07-21T06:59:28;0.00;;;0.00;;
11263;SDS011;5689;48.798;9.070;2022-07-21T07:01:55;0.00;;;0.00;;
11263;SDS011;5689;48.798;9.070;2022-07-21T07:04:27;0.00;;;0.00;;
11263;SDS011;5689;48.798;9.070;2022-07-21T07:06:55;0.00;;;0.00;;
11263;SDS011;5689;48.798;9.070;2022-07-21T07:09:24;0.00;;;0.00;;
11263;SDS011;5689;48.798;9.070;2022-07-21T07:11:52;0.00;;;0.00;;
11263;SDS011;5689;48.798;9.070;2022-07-21T07:14:41;0.00;;;0.00;;
11263;SDS011;5689;48.798;9.070;2022-07-21T07:17:09;0.00;;;0.00;;
11263;SDS011;5689;48.798;9.070;2022-07-21T07:19:40;0.00;;;0.00;;
11263;SDS011;5689;48.798;9.070;2022-07-21T07:22:08;0.00;;;0.00;;
11263;SDS011;5689;48.798;9.070;2022-07-21T07:24:36;0.00;;;0.00;;
11263;SDS011;5689;48.798;9.070;2022-07-21T07:27:04;0.00;;;0.00;;
11263;SDS011;5689;48.798;9.070;2022-07-21T07:29:34;0.00;;;0.00;;
11263;SDS011;5689;48.798;9.070;2022-07-21T07:32:02;0.00;;;0.00;;
11263;SDS011;5689;48.798;9.070;2022-07-21T07:34:30;0.00;;;0.00;;
11263;SDS011;5689;48.798;9.070;2022-07-21T07:36:59;0.00;;;0.00;;
11263;SDS011;5689;48.798;9.070;2022-07-21T07:39:27;0.00;;;0.00;;
11263;SDS011;5689;48.798;9.070;2022-07-21T07:41:56;0.00;;;0.00;;
11263;SDS011;5689;48.798;9.070;2022-07-21T07:44:23;0.00;;;0.00;;
11263;SDS011;5689;48.798;9.070;2022-07-21T07:46:51;0.00;;;0.00;;
11263;SDS011;5689;48.798;9.070;2022-07-21T07:49:19;0.00;;;0.00;;
11263;SDS011;5689;48.798;9.070;2022-07-21T07:51:47;0.00;;;0.00;;
11263;SDS011;5689;48.798;9.070;2022-07-21T07:54:17;0.00;;;0.00;;
11263;SDS011;5689;48.798;9.070;2022-07-21T07:56:45;0.00;;;0.00;;
11263;SDS011;5689;48.798;9.070;2022-07-21T07:59:13;0.00;;;0.00;;
11263;SDS011;5689;48.798;9.070;2022-07-21T08:01:41;0.00;;;0.00;;
11263;SDS011;5689;48.798;9.070;2022-07-21T08:04:09;0.00;;;0.00;;
11263;SDS011;5689;48.798;9.070;2022-07-21T08:06:37;0.00;;;0.00;;
11263;SDS011;5689;48.798;9.070;2022-07-21T08:09:05;0.00;;;0.00;;
11263;SDS011;5689;48.798;9.070;2022-07-21T08:11:34;0.00;;;0.00;;
11263;SDS011;5689;48.798;9.070;2022-07-21T08:14:02;0.00;;;0.00;;
11263;SDS011;5689;48.798;9.070;2022-07-21T08:16:30;0.00;;;0.00;;
11263;SDS011;5689;48.798;9.070;2022-07-21T08:19:00;0.00;;;0.00;;
11263;SDS011;5689;48.798;9.070;2022-07-21T08:21:28;0.00;;;0.00;;
11263;SDS011;5689;48.798;9.070;2022-07-21T08:24:06;0.00;;;0.00;;
11263;SDS011;5689;48.798;9.070;2022-07-21T08:26:36;0.00;;;0.00;;
11263;SDS011;5689;48.798;9.070;2022-07-21T08:29:04;0.00;;;0.00;;
11263;SDS011;5689;48.798;9.070;2022-07-21T08:31:32;0.00;;;0.00;;
11263;SDS011;5689;48.798;9.070;2022-07-21T08:34:00;0.00;;;0.00;;
11263;SDS011;5689;48.798;9.070;2022-07-21T08:36:28;0.00;;;0.00;;
11263;SDS011;5689;48.798;9.070;2022-07-21T08:38:56;0.00;;;0.00;;
11263;SDS011;5689;48.798;9.070;2022-07-21T08:41:24;0.00;;;0.00;;
11263;SDS011;5689;48.798;9.070;2022-07-21T08:43:53;0.00;;;0.00;;
11263;SDS011;5689;48.798;9.070;2022-07-21T08:46:24;0.00;;;0.00;;
11263;SDS011;5689;48.798;9.070;2022-07-21T08:48:52;0.00;;;0.00;;
11263;SDS011;5689;48.798;9.070;2022-07-21T08:51:21;0.00;;;0.00;;
11263;SDS011;5689;48.798;9.070;2022-07-21T08:53:49;0.00;;;0.00;;
11263;SDS011;5689;48.798;9.070;2022-07-21T08:56:17;0.00;;;0.00;;
11263;SDS011;5689;48.798;9.070;2022-07-21T08:58:45;0.00;;;0.00;;
11263;SDS011;5689;48.798;9.070;2022-07-21T09:01:14;0.00;;;0.00;;
11263;SDS011;5689;48.798;9.070;2022-07-21T09:03:43;0.00;;;0.00;;
11263;SDS011;5689;48.798;9.070;2022-07-21T09:06:14;0.00;;;0.00;;
11263;SDS011;5689;48.798;9.070;2022-07-21T09:08:44;0.00;;;0.00;;
11263;SDS011;5689;48.798;9.070;2022-07-21T09:11:14;0.00;;;0.00;;
11263;SDS011;5689;48.798;9.070;2022-07-21T09:14:03;0.00;;;0.00;;
11263;SDS011;5689;48.798;9.070;2022-07-21T09:16:35;0.00;;;0.00;;
11263;SDS011;5689;48.798;9.070;2022-07-21T09:19:04;0.00;;;0.00;;
11263;SDS011;5689;48.798;9.070;2022-07-21T09:21:33;0.00;;;0.00;;
11263;SDS011;5689;48.798;9.070;2022-07-21T09:24:11;0.00;;;0.00;;
11263;SDS011;5689;48.798;9.070;2022-07-21T09:26:55;0.00;;;0.00;;
11263;SDS011;5689;48.798;9.070;2022-07-21T09:29:36;0.00;;;0.00;;
11263;SDS011;5689;48.798;9.070;2022-07-21T09:32:14;0.00;;;0.00;;
11263;SDS011;5689;48.798;9.070;2022-07-21T09:34:48;0.00;;;0.00;;
11263;SDS011;5689;48.798;9.070;2022-07-21T09:37:17;0.00;;;0.00;;
11263;SDS011;5689;48.798;9.070;2022-07-21T09:39:47;0.00;;;0.00;;
11263;SDS011;5689;48.798;9.070;2022-07-21T09:42:17;0.00;;;0.00;;
11263;SDS011;5689;48.798;9.070;2022-07-21T09:44:47;0.00;;;0.00;;
11263;SDS011;5689;48.798;9.070;2022-07-21T09:47:18;0.00;;;0.00;;
11263;SDS011;5689;48.798;9.070;2022-07-21T09:49:48;0.00;;;0.00;;
11263;SDS011;5689;48.798;9.070;2022-07-21T09:52:37;0.00;;;0.00;;
11263;SDS011;5689;48.798;9.070;2022-07-21T09:55:07;0.00;;;0.00;;
11263;SDS011;5689;48.798;9.070;2022-07-21T09:57:37;0.00;;;0.00;;
11263;SDS011;5689;48.798;9.070;2022-07-21T10:00:06;0.00;;;0.00;;
11263;SDS011;5689;48.798;9.070;2022-07-21T10:02:42;0.00;;;0.00;;
11263;SDS011;5689;48.798;9.070;2022-07-21T10:05:12;0.00;;;0.00;;
11263;SDS011;5689;48.798;9.070;2022-07-21T10:07:42;0.00;;;0.00;;
11263;SDS011;5689;48.798;9.070;2022-07-21T10:10:12;0.00;;;0.00;;
11263;SDS011;5689;48.798;9.070;2022-07-21T10:12:41;0.10;;;0.10;;
11263;SDS011;5689;48.798;9.070;2022-07-21T10:15:09;0.00;;;0.00;;
11263;SDS011;5689;48.798;9.070;2022-07-21T10:17:38;0.00;;;0.00;;
11263;SDS011;5689;48.798;9.070;2022-07-21T10:20:09;0.00;;;0.00;;
11263;SDS011;5689;48.798;9.070;2022-07-21T10:22:49;0.00;;;0.00;;
11263;SDS011;5689;48.798;9.070;2022-07-21T10:25:24;0.00;;;0.00;;
11263;SDS011;5689;48.798;9.070;2022-07-21T10:28:11;0.00;;;0.00;;
11263;SDS011;5689;48.798;9.070;2022-07-21T10:30:45;0.00;;;0.00;;
11263;SDS011;5689;48.798;9.070;2022-07-21T10:33:15;0.00;;;0.00;;
11263;SDS011;5689;48.798;9.070;2022-07-21T10:35:46;0.00;;;0.00;;
11263;SDS011;5689;48.798;9.070;2022-07-21T10:38:26;0.00;;;0.00;;
11263;SDS011;5689;48.798;9.070;2022-07-21T10:40:55;0.00;;;0.00;;
11263;SDS011;5689;48.798;9.070;2022-07-21T10:43:36;0.00;;;0.00;;
11263;SDS011;5689;48.798;9.070;2022-07-21T10:49:03;0.00;;;0.00;;
11263;SDS011;5689;48.798;9.070;2022-07-21T10:51:34;0.00;;;0.00;;
11263;SDS011;5689;48.798;9.070;2022-07-21T11:02:45;0.00;;;0.00;;
11263;SDS011;5689;48.798;9.070;2022-07-21T11:05:14;0.00;;;0.00;;
11263;SDS011;5689;48.798;9.070;2022-07-21T11:10:52;0.00;;;0.00;;
11263;SDS011;5689;48.798;9.070;2022-07-21T11:13:21;0.00;;;0.00;;
11263;SDS011;5689;48.798;9.070;2022-07-21T11:15:56;0.00;;;0.00;;
11263;SDS011;5689;48.798;9.070;2022-07-21T11:18:27;0.00;;;0.00;;
11263;SDS011;5689;48.798;9.070;2022-07-21T11:21:04;0.00;;;0.00;;
11263;SDS011;5689;48.798;9.070;2022-07-21T11:23:35;0.00;;;0.00;;
11263;SDS011;5689;48.798;9.070;2022-07-21T11:26:14;0.00;;;0.00;;
11263;SDS011;5689;48.798;9.070;2022-07-21T11:28:43;0.00;;;0.00;;
11263;SDS011;5689;48.798;9.070;2022-07-21T11:31:16;0.10;;;0.10;;
11263;SDS011;5689;48.798;9.070;2022-07-21T11:33:47;0.00;;;0.00;;
11263;SDS011;5689;48.798;9.070;2022-07-21T11:36:23;0.00;;;0.00;;
11263;SDS011;5689;48.798;9.070;2022-07-21T11:38:57;0.00;;;0.00;;
11263;SDS011;5689;48.798;9.070;2022-07-21T11:41:27;0.00;;;0.00;;
11263;SDS011;5689;48.798;9.070;2022-07-21T11:43:56;0.00;;;0.00;;
11263;SDS011;5689;48.798;9.070;2022-07-21T11:46:24;0.00;;;0.00;;
11263;SDS011;5689;48.798;9.070;2022-07-21T11:49:03;0.00;;;0.00;;
11263;SDS011;5689;48.798;9.070;2022-07-21T11:51:31;0.00;;;0.00;;
11263;SDS011;5689;48.798;9.070;2022-07-21T11:54:00;0.00;;;0.00;;
11263;SDS011;5689;48.798;9.070;2022-07-21T11:56:29;0.00;;;0.00;;
11263;SDS011;5689;48.798;9.070;2022-07-21T11:59:10;0.00;;;0.00;;
11263;SDS011;5689;48.798;9.070;2022-07-21T12:01:49;0.00;;;0.00;;
11263;SDS011;5689;48.798;9.070;2022-07-21T12:07:22;0.00;;;0.00;;
11263;SDS011;5689;48.798;9.070;2022-07-21T12:09:53;0.10;;;0.10;;
11263;SDS011;5689;48.798;9.070;2022-07-21T12:12:28;0.00;;;0.00;;
11263;SDS011;5689;48.798;9.070;2022-07-21T12:15:08;0.00;;;0.00;;
11263;SDS011;5689;48.798;9.070;2022-07-21T12:17:38;0.00;;;0.00;;
11263;SDS011;5689;48.798;9.070;2022-07-21T12:20:08;0.00;;;0.00;;
11263;SDS011;5689;48.798;9.070;2022-07-21T12:22:37;0.00;;;0.00;;
11263;SDS011;5689;48.798;9.070;2022-07-21T12:25:09;0.00;;;0.00;;
11263;SDS011;5689;48.798;9.070;2022-07-21T12:27:39;0.00;;;0.00;;
11263;SDS011;5689;48.798;9.070;2022-07-21T12:30:10;0.00;;;0.00;;
11263;SDS011;5689;48.798;9.070;2022-07-21T12:33:00;0.00;;;0.00;;
11263;SDS011;5689;48.798;9.070;2022-07-21T12:35:30;0.00;;;0.00;;
11263;SDS011;5689;48.798;9.070;2022-07-21T12:37:59;0.00;;;0.00;;
11263;SDS011;5689;48.798;9.070;2022-07-21T12:40:31;0.00;;;0.00;;
11263;SDS011;5689;48.798;9.070;2022-07-21T12:45:52;0.00;;;0.00;;
11263;SDS011;5689;48.798;9.070;2022-07-21T12:48:23;0.00;;;0.00;;
11263;SDS011;5689;48.798;9.070;2022-07-21T12:51:05;0.00;;;0.00;;
11263;SDS011;5689;48.798;9.070;2022-07-21T12:53:39;0.00;;;0.00;;
11263;SDS011;5689;48.798;9.070;2022-07-21T12:56:10;0.00;;;0.00;;
11263;SDS011;5689;48.798;9.070;2022-07-21T12:58:40;0.00;;;0.00;;
11263;SDS011;5689;48.798;9.070;2022-07-21T13:01:09;0.00;;;0.00;;
11263;SDS011;5689;48.798;9.070;2022-07-21T13:03:38;0.00;;;0.00;;
11263;SDS011;5689;48.798;9.070;2022-07-21T13:06:06;0.00;;;0.00;;
11263;SDS011;5689;48.798;9.070;2022-07-21T13:08:35;0.00;;;0.00;;
11263;SDS011;5689;48.798;9.070;2022-07-21T13:11:05;0.00;;;0.00;;
11263;SDS011;5689;48.798;9.070;2022-07-21T13:13:33;0.00;;;0.00;;
11263;SDS011;5689;48.798;9.070;2022-07-21T13:16:04;0.00;;;0.00;;
11263;SDS011;5689;48.798;9.070;2022-07-21T13:18:33;0.00;;;0.00;;
11263;SDS011;5689;48.798;9.070;2022-07-21T13:21:02;0.00;;;0.00;;
11263;SDS011;5689;48.798;9.070;2022-07-21T13:23:31;0.00;;;0.00;;
11263;SDS011;5689;48.798;9.070;2022-07-21T13:25:59;0.00;;;0.00;;
11263;SDS011;5689;48.798;9.070;2022-07-21T13:28:29;0.00;;;0.00;;
11263;SDS011;5689;48.798;9.070;2022-07-21T13:30:58;0.00;;;0.00;;
11263;SDS011;5689;48.798;9.070;2022-07-21T13:33:27;0.00;;;0.00;;
11263;SDS011;5689;48.798;9.070;2022-07-21T13:35:55;0.00;;;0.00;;
11263;SDS011;5689;48.798;9.070;2022-07-21T13:38:23;0.00;;;0.00;;
11263;SDS011;5689;48.798;9.070;2022-07-21T13:40:51;0.00;;;0.00;;
11263;SDS011;5689;48.798;9.070;2022-07-21T13:43:39;0.00;;;0.00;;
11263;SDS011;5689;48.798;9.070;2022-07-21T13:46:07;0.00;;;0.00;;
11263;SDS011;5689;48.798;9.070;2022-07-21T13:48:36;0.00;;;0.00;;
11263;SDS011;5689;48.798;9.070;2022-07-21T13:51:08;0.00;;;0.00;;
11263;SDS011;5689;48.798;9.070;2022-07-21T13:53:46;0.00;;;0.00;;
11263;SDS011;5689;48.798;9.070;2022-07-21T13:56:16;0.00;;;0.00;;
11263;SDS011;5689;48.798;9.070;2022-07-21T13:58:44;0.00;;;0.00;;
11263;SDS011;5689;48.798;9.070;2022-07-21T14:01:12;0.00;;;0.00;;
11263;SDS011;5689;48.798;9.070;2022-07-21T14:03:42;0.00;;;0.00;;
11263;SDS011;5689;48.798;9.070;2022-07-21T14:06:11;0.00;;;0.00;;
11263;SDS011;5689;48.798;9.070;2022-07-21T14:08:40;0.00;;;0.00;;
11263;SDS011;5689;48.798;9.070;2022-07-21T14:11:08;0.00;;;0.00;;
11263;SDS011;5689;48.798;9.070;2022-07-21T14:13:37;0.00;;;0.00;;
11263;SDS011;5689;48.798;9.070;2022-07-21T14:16:05;0.00;;;0.00;;
11263;SDS011;5689;48.798;9.070;2022-07-21T14:18:33;0.00;;;0.00;;
11263;SDS011;5689;48.798;9.070;2022-07-21T14:21:03;0.00;;;0.00;;
11263;SDS011;5689;48.798;9.070;2022-07-21T14:23:32;0.00;;;0.00;;
11263;SDS011;5689;48.798;9.070;2022-07-21T14:26:00;0.00;;;0.00;;
11263;SDS011;5689;48.798;9.070;2022-07-21T14:28:28;0.00;;;0.00;;
11263;SDS011;5689;48.798;9.070;2022-07-21T14:30:56;0.00;;;0.00;;
11263;SDS011;5689;48.798;9.070;2022-07-21T14:33:27;0.00;;;0.00;;
11263;SDS011;5689;48.798;9.070;2022-07-21T14:35:56;0.00;;;0.00;;
11263;SDS011;5689;48.798;9.070;2022-07-21T14:38:26;0.00;;;0.00;;
11263;SDS011;5689;48.798;9.070;2022-07-21T14:40:54;0.00;;;0.00;;
11263;SDS011;5689;48.798;9.070;2022-07-21T14:43:22;0.00;;;0.00;;
11263;SDS011;5689;48.798;9.070;2022-07-21T14:45:50;0.00;;;0.00;;
11263;SDS011;5689;48.798;9.070;2022-07-21T14:48:18;0.00;;;0.00;;
11263;SDS011;5689;48.798;9.070;2022-07-21T14:50:46;0.00;;;0.00;;
11263;SDS011;5689;48.798;9.070;2022-07-21T14:53:16;0.00;;;0.00;;
11263;SDS011;5689;48.798;9.070;2022-07-21T14:55:45;0.00;;;0.00;;
11263;SDS011;5689;48.798;9.070;2022-07-21T14:58:13;0.00;;;0.00;;
11263;SDS011;5689;48.798;9.070;2022-07-21T15:00:41;0.00;;;0.00;;
11263;SDS011;5689;48.798;9.070;2022-07-21T15:03:10;0.00;;;0.00;;
11263;SDS011;5689;48.798;9.070;2022-07-21T15:05:38;0.00;;;0.00;;
11263;SDS011;5689;48.798;9.070;2022-07-21T15:08:06;0.00;;;0.00;;
11263;SDS011;5689;48.798;9.070;2022-07-21T15:10:38;0.00;;;0.00;;
11263;SDS011;5689;48.798;9.070;2022-07-21T15:13:07;0.00;;;0.00;;
11263;SDS011;5689;48.798;9.070;2022-07-21T15:15:36;0.00;;;0.00;;
11263;SDS011;5689;48.798;9.070;2022-07-21T15:18:04;0.00;;;0.00;;
11263;SDS011;5689;48.798;9.070;2022-07-21T15:20:32;0.00;;;0.00;;
11263;SDS011;5689;48.798;9.070;2022-07-21T15:23:00;0.00;;;0.00;;
11263;SDS011;5689;48.798;9.070;2022-07-21T15:25:28;0.00;;;0.00;;
11263;SDS011;5689;48.798;9.070;2022-07-21T15:27:56;0.00;;;0.00;;
11263;SDS011;5689;48.798;9.070;2022-07-21T15:30:26;0.00;;;0.00;;
11263;SDS011;5689;48.798;9.070;2022-07-21T15:32:54;0.00;;;0.00;;
11263;SDS011;5689;48.798;9.070;2022-07-21T15:35:22;0.00;;;0.00;;
11263;SDS011;5689;48.798;9.070;2022-07-21T15:37:50;0.00;;;0.00;;